sensor_id;sensor_type;location;lat;lon;timestamp;P1;durP1;ratioP1;P2;durP2;ratioP2
21301;SDS011;10810;48.270;9.996;2023-11-19T00:01:49;5.00;;;2.80;;
21301;SDS011;10810;48.270;9.996;2023-11-19T00:04:16;5.47;;;2.40;;
21301;SDS011;10810;48.270;9.996;2023-11-19T00:06:44;6.67;;;3.10;;
21301;SDS011;10810;48.270;9.996;2023-11-19T00:09:11;5.10;;;2.70;;
21301;SDS011;10810;48.270;9.996;2023-11-19T00:11:38;6.20;;;2.80;;
21301;SDS011;10810;48.270;9.996;2023-11-19T00:14:05;7.27;;;3.07;;
21301;SDS011;10810;48.270;9.996;2023-11-19T00:16:35;6.27;;;3.00;;
21301;SDS011;10810;48.270;9.996;2023-11-19T00:19:02;4.80;;;2.70;;
21301;SDS011;10810;48.270;9.996;2023-11-19T00:21:30;7.20;;;3.67;;
21301;SDS011;10810;48.270;9.996;2023-11-19T00:23:58;5.70;;;2.83;;
21301;SDS011;10810;48.270;9.996;2023-11-19T00:26:25;5.70;;;2.83;;
21301;SDS011;10810;48.270;9.996;2023-11-19T00:28:52;7.03;;;3.37;;
21301;SDS011;10810;48.270;9.996;2023-11-19T00:31:21;6.73;;;2.93;;
21301;SDS011;10810;48.270;9.996;2023-11-19T00:33:49;6.90;;;2.90;;
21301;SDS011;10810;48.270;9.996;2023-11-19T00:36:16;5.90;;;3.27;;
21301;SDS011;10810;48.270;9.996;2023-11-19T00:38:43;6.73;;;3.00;;
21301;SDS011;10810;48.270;9.996;2023-11-19T00:41:10;7.63;;;3.10;;
21301;SDS011;10810;48.270;9.996;2023-11-19T00:43:37;7.37;;;3.20;;
21301;SDS011;10810;48.270;9.996;2023-11-19T00:46:06;7.60;;;3.10;;
21301;SDS011;10810;48.270;9.996;2023-11-19T00:48:36;6.97;;;3.27;;
21301;SDS011;10810;48.270;9.996;2023-11-19T00:51:05;7.53;;;3.50;;
21301;SDS011;10810;48.270;9.996;2023-11-19T00:53:32;7.23;;;3.33;;
21301;SDS011;10810;48.270;9.996;2023-11-19T00:56:00;6.47;;;3.40;;
21301;SDS011;10810;48.270;9.996;2023-11-19T00:58:27;9.10;;;3.77;;
21301;SDS011;10810;48.270;9.996;2023-11-19T01:00:54;7.30;;;3.83;;
21301;SDS011;10810;48.270;9.996;2023-11-19T01:03:22;6.00;;;2.93;;
21301;SDS011;10810;48.270;9.996;2023-11-19T01:05:50;7.47;;;3.60;;
21301;SDS011;10810;48.270;9.996;2023-11-19T01:08:19;7.30;;;3.57;;
21301;SDS011;10810;48.270;9.996;2023-11-19T01:10:46;7.77;;;3.60;;
21301;SDS011;10810;48.270;9.996;2023-11-19T01:13:13;9.43;;;3.80;;
21301;SDS011;10810;48.270;9.996;2023-11-19T01:15:40;8.77;;;4.07;;
21301;SDS011;10810;48.270;9.996;2023-11-19T01:18:08;8.47;;;3.97;;
21301;SDS011;10810;48.270;9.996;2023-11-19T01:20:36;9.37;;;4.10;;
21301;SDS011;10810;48.270;9.996;2023-11-19T01:23:03;8.40;;;3.73;;
21301;SDS011;10810;48.270;9.996;2023-11-19T01:25:32;9.50;;;4.13;;
21301;SDS011;10810;48.270;9.996;2023-11-19T01:28:00;9.57;;;4.40;;
21301;SDS011;10810;48.270;9.996;2023-11-19T01:30:28;8.03;;;3.67;;
21301;SDS011;10810;48.270;9.996;2023-11-19T01:32:55;9.93;;;4.50;;
21301;SDS011;10810;48.270;9.996;2023-11-19T01:35:23;9.23;;;4.30;;
21301;SDS011;10810;48.270;9.996;2023-11-19T01:37:50;8.10;;;4.13;;
21301;SDS011;10810;48.270;9.996;2023-11-19T01:40:19;9.20;;;4.43;;
21301;SDS011;10810;48.270;9.996;2023-11-19T01:42:48;9.07;;;4.17;;
21301;SDS011;10810;48.270;9.996;2023-11-19T01:45:21;9.23;;;4.37;;
21301;SDS011;10810;48.270;9.996;2023-11-19T01:47:53;8.30;;;4.30;;
21301;SDS011;10810;48.270;9.996;2023-11-19T01:50:20;9.50;;;4.20;;
21301;SDS011;10810;48.270;9.996;2023-11-19T01:52:48;7.07;;;3.77;;
21301;SDS011;10810;48.270;9.996;2023-11-19T01:55:15;9.37;;;4.10;;
21301;SDS011;10810;48.270;9.996;2023-11-19T01:57:42;7.93;;;4.23;;
21301;SDS011;10810;48.270;9.996;2023-11-19T02:00:11;9.27;;;4.10;;
21301;SDS011;10810;48.270;9.996;2023-11-19T02:02:39;8.13;;;4.10;;
21301;SDS011;10810;48.270;9.996;2023-11-19T02:05:06;10.23;;;4.77;;
21301;SDS011;10810;48.270;9.996;2023-11-19T02:07:34;10.57;;;4.50;;
21301;SDS011;10810;48.270;9.996;2023-11-19T02:10:01;9.10;;;4.43;;
21301;SDS011;10810;48.270;9.996;2023-11-19T02:12:30;7.77;;;4.10;;
21301;SDS011;10810;48.270;9.996;2023-11-19T02:14:58;9.17;;;4.20;;
21301;SDS011;10810;48.270;9.996;2023-11-19T02:17:29;8.73;;;4.17;;
21301;SDS011;10810;48.270;9.996;2023-11-19T02:19:57;9.73;;;4.33;;
21301;SDS011;10810;48.270;9.996;2023-11-19T02:22:24;9.90;;;4.10;;
21301;SDS011;10810;48.270;9.996;2023-11-19T02:24:54;9.47;;;4.20;;
21301;SDS011;10810;48.270;9.996;2023-11-19T02:27:28;8.40;;;4.17;;
21301;SDS011;10810;48.270;9.996;2023-11-19T02:30:05;8.57;;;4.50;;
21301;SDS011;10810;48.270;9.996;2023-11-19T02:32:33;7.93;;;3.83;;
21301;SDS011;10810;48.270;9.996;2023-11-19T02:35:00;9.30;;;4.27;;
21301;SDS011;10810;48.270;9.996;2023-11-19T02:37:28;7.93;;;3.90;;
21301;SDS011;10810;48.270;9.996;2023-11-19T02:39:55;8.90;;;4.33;;
21301;SDS011;10810;48.270;9.996;2023-11-19T02:42:25;9.17;;;4.20;;
21301;SDS011;10810;48.270;9.996;2023-11-19T02:44:54;9.97;;;4.20;;
21301;SDS011;10810;48.270;9.996;2023-11-19T02:47:21;8.97;;;4.07;;
21301;SDS011;10810;48.270;9.996;2023-11-19T02:49:49;8.40;;;3.80;;
21301;SDS011;10810;48.270;9.996;2023-11-19T02:52:18;7.33;;;3.60;;
21301;SDS011;10810;48.270;9.996;2023-11-19T02:54:45;7.90;;;3.57;;
21301;SDS011;10810;48.270;9.996;2023-11-19T02:57:12;9.03;;;3.67;;
21301;SDS011;10810;48.270;9.996;2023-11-19T02:59:40;8.17;;;3.53;;
21301;SDS011;10810;48.270;9.996;2023-11-19T03:02:10;6.83;;;3.07;;
21301;SDS011;10810;48.270;9.996;2023-11-19T03:04:37;9.07;;;3.60;;
21301;SDS011;10810;48.270;9.996;2023-11-19T03:07:05;7.13;;;3.10;;
21301;SDS011;10810;48.270;9.996;2023-11-19T03:09:33;5.63;;;3.03;;
21301;SDS011;10810;48.270;9.996;2023-11-19T03:12:00;9.10;;;3.60;;
21301;SDS011;10810;48.270;9.996;2023-11-19T03:14:27;6.87;;;3.43;;
21301;SDS011;10810;48.270;9.996;2023-11-19T03:16:56;7.73;;;3.60;;
21301;SDS011;10810;48.270;9.996;2023-11-19T03:19:24;6.80;;;3.30;;
21301;SDS011;10810;48.270;9.996;2023-11-19T03:21:51;8.97;;;3.70;;
21301;SDS011;10810;48.270;9.996;2023-11-19T03:24:19;7.13;;;3.50;;
21301;SDS011;10810;48.270;9.996;2023-11-19T03:26:57;7.90;;;3.50;;
21301;SDS011;10810;48.270;9.996;2023-11-19T03:29:24;7.63;;;3.47;;
21301;SDS011;10810;48.270;9.996;2023-11-19T03:31:51;6.50;;;3.17;;
21301;SDS011;10810;48.270;9.996;2023-11-19T03:34:19;7.33;;;3.70;;
21301;SDS011;10810;48.270;9.996;2023-11-19T03:36:48;7.87;;;3.50;;
21301;SDS011;10810;48.270;9.996;2023-11-19T03:39:15;8.27;;;3.40;;
21301;SDS011;10810;48.270;9.996;2023-11-19T03:41:45;7.17;;;3.33;;
21301;SDS011;10810;48.270;9.996;2023-11-19T03:44:13;7.57;;;3.57;;
21301;SDS011;10810;48.270;9.996;2023-11-19T03:46:40;7.57;;;3.47;;
21301;SDS011;10810;48.270;9.996;2023-11-19T03:49:07;6.23;;;3.20;;
21301;SDS011;10810;48.270;9.996;2023-11-19T03:51:34;7.40;;;3.13;;
21301;SDS011;10810;48.270;9.996;2023-11-19T03:54:03;6.60;;;3.37;;
21301;SDS011;10810;48.270;9.996;2023-11-19T03:56:31;7.13;;;3.43;;
21301;SDS011;10810;48.270;9.996;2023-11-19T03:58:58;6.10;;;3.10;;
21301;SDS011;10810;48.270;9.996;2023-11-19T04:01:26;6.30;;;3.30;;
21301;SDS011;10810;48.270;9.996;2023-11-19T04:03:53;6.23;;;3.27;;
21301;SDS011;10810;48.270;9.996;2023-11-19T04:06:21;6.90;;;3.43;;
21301;SDS011;10810;48.270;9.996;2023-11-19T04:08:48;7.13;;;3.17;;
21301;SDS011;10810;48.270;9.996;2023-11-19T04:11:17;6.40;;;3.27;;
21301;SDS011;10810;48.270;9.996;2023-11-19T04:13:44;6.50;;;3.40;;
21301;SDS011;10810;48.270;9.996;2023-11-19T04:16:11;7.30;;;3.40;;
21301;SDS011;10810;48.270;9.996;2023-11-19T04:18:39;8.73;;;3.63;;
21301;SDS011;10810;48.270;9.996;2023-11-19T04:21:07;6.30;;;3.27;;
21301;SDS011;10810;48.270;9.996;2023-11-19T04:23:34;8.20;;;3.40;;
21301;SDS011;10810;48.270;9.996;2023-11-19T04:26:01;5.87;;;2.97;;
21301;SDS011;10810;48.270;9.996;2023-11-19T04:28:30;7.27;;;3.60;;
21301;SDS011;10810;48.270;9.996;2023-11-19T04:30:57;7.07;;;3.40;;
21301;SDS011;10810;48.270;9.996;2023-11-19T04:33:25;6.87;;;3.30;;
21301;SDS011;10810;48.270;9.996;2023-11-19T04:35:52;9.23;;;3.70;;
21301;SDS011;10810;48.270;9.996;2023-11-19T04:38:19;8.87;;;3.37;;
21301;SDS011;10810;48.270;9.996;2023-11-19T04:40:46;7.73;;;3.57;;
21301;SDS011;10810;48.270;9.996;2023-11-19T04:43:13;6.10;;;3.30;;
21301;SDS011;10810;48.270;9.996;2023-11-19T04:45:42;6.83;;;3.50;;
21301;SDS011;10810;48.270;9.996;2023-11-19T04:48:09;7.70;;;3.20;;
21301;SDS011;10810;48.270;9.996;2023-11-19T04:50:38;7.07;;;3.40;;
21301;SDS011;10810;48.270;9.996;2023-11-19T04:53:05;6.27;;;3.33;;
21301;SDS011;10810;48.270;9.996;2023-11-19T04:55:32;7.27;;;3.60;;
21301;SDS011;10810;48.270;9.996;2023-11-19T04:57:59;6.90;;;3.50;;
21301;SDS011;10810;48.270;9.996;2023-11-19T05:00:26;7.57;;;3.47;;
21301;SDS011;10810;48.270;9.996;2023-11-19T05:02:55;6.90;;;3.10;;
21301;SDS011;10810;48.270;9.996;2023-11-19T05:05:22;7.40;;;3.63;;
21301;SDS011;10810;48.270;9.996;2023-11-19T05:07:50;8.53;;;3.60;;
21301;SDS011;10810;48.270;9.996;2023-11-19T05:10:17;7.00;;;3.33;;
21301;SDS011;10810;48.270;9.996;2023-11-19T05:12:45;7.30;;;3.57;;
21301;SDS011;10810;48.270;9.996;2023-11-19T05:15:12;9.63;;;3.83;;
21301;SDS011;10810;48.270;9.996;2023-11-19T05:17:39;7.43;;;3.77;;
21301;SDS011;10810;48.270;9.996;2023-11-19T05:20:08;9.37;;;3.50;;
21301;SDS011;10810;48.270;9.996;2023-11-19T05:22:38;8.33;;;4.03;;
21301;SDS011;10810;48.270;9.996;2023-11-19T05:25:06;7.57;;;3.40;;
21301;SDS011;10810;48.270;9.996;2023-11-19T05:27:34;7.00;;;3.30;;
21301;SDS011;10810;48.270;9.996;2023-11-19T05:30:01;7.17;;;3.53;;
21301;SDS011;10810;48.270;9.996;2023-11-19T05:32:29;7.23;;;3.47;;
21301;SDS011;10810;48.270;9.996;2023-11-19T05:34:56;8.90;;;3.80;;
21301;SDS011;10810;48.270;9.996;2023-11-19T05:37:24;7.30;;;3.60;;
21301;SDS011;10810;48.270;9.996;2023-11-19T05:39:52;6.33;;;3.53;;
21301;SDS011;10810;48.270;9.996;2023-11-19T05:42:19;7.63;;;3.50;;
21301;SDS011;10810;48.270;9.996;2023-11-19T05:44:47;7.70;;;4.00;;
21301;SDS011;10810;48.270;9.996;2023-11-19T05:47:15;8.50;;;3.73;;
21301;SDS011;10810;48.270;9.996;2023-11-19T05:49:42;7.17;;;3.50;;
21301;SDS011;10810;48.270;9.996;2023-11-19T05:52:10;6.97;;;3.60;;
21301;SDS011;10810;48.270;9.996;2023-11-19T05:54:38;7.00;;;3.50;;
21301;SDS011;10810;48.270;9.996;2023-11-19T05:57:07;8.57;;;3.70;;
21301;SDS011;10810;48.270;9.996;2023-11-19T05:59:35;8.00;;;3.73;;
21301;SDS011;10810;48.270;9.996;2023-11-19T06:02:02;10.63;;;3.50;;
21301;SDS011;10810;48.270;9.996;2023-11-19T06:04:29;7.33;;;3.43;;
21301;SDS011;10810;48.270;9.996;2023-11-19T06:06:57;6.70;;;3.40;;
21301;SDS011;10810;48.270;9.996;2023-11-19T06:09:24;7.70;;;3.50;;
21301;SDS011;10810;48.270;9.996;2023-11-19T06:11:53;8.63;;;3.57;;
21301;SDS011;10810;48.270;9.996;2023-11-19T06:14:22;7.70;;;3.70;;
21301;SDS011;10810;48.270;9.996;2023-11-19T06:16:50;5.67;;;3.33;;
21301;SDS011;10810;48.270;9.996;2023-11-19T06:19:17;9.10;;;3.47;;
21301;SDS011;10810;48.270;9.996;2023-11-19T06:21:44;7.17;;;3.27;;
21301;SDS011;10810;48.270;9.996;2023-11-19T06:24:12;8.53;;;3.40;;
21301;SDS011;10810;48.270;9.996;2023-11-19T06:26:39;6.07;;;3.30;;
21301;SDS011;10810;48.270;9.996;2023-11-19T06:29:08;7.23;;;3.10;;
21301;SDS011;10810;48.270;9.996;2023-11-19T06:31:35;5.80;;;3.03;;
21301;SDS011;10810;48.270;9.996;2023-11-19T06:34:03;5.93;;;2.93;;
21301;SDS011;10810;48.270;9.996;2023-11-19T06:36:30;5.67;;;3.13;;
21301;SDS011;10810;48.270;9.996;2023-11-19T06:38:57;5.60;;;3.10;;
21301;SDS011;10810;48.270;9.996;2023-11-19T06:41:25;6.33;;;3.03;;
21301;SDS011;10810;48.270;9.996;2023-11-19T06:43:52;5.27;;;2.87;;
21301;SDS011;10810;48.270;9.996;2023-11-19T06:46:21;6.20;;;3.20;;
21301;SDS011;10810;48.270;9.996;2023-11-19T06:48:48;6.40;;;3.10;;
21301;SDS011;10810;48.270;9.996;2023-11-19T06:51:15;6.17;;;3.10;;
21301;SDS011;10810;48.270;9.996;2023-11-19T06:53:42;6.17;;;3.00;;
21301;SDS011;10810;48.270;9.996;2023-11-19T06:56:17;6.93;;;3.00;;
21301;SDS011;10810;48.270;9.996;2023-11-19T06:58:45;5.60;;;2.90;;
21301;SDS011;10810;48.270;9.996;2023-11-19T07:01:13;5.20;;;2.80;;
21301;SDS011;10810;48.270;9.996;2023-11-19T07:03:41;6.47;;;2.67;;
21301;SDS011;10810;48.270;9.996;2023-11-19T07:06:10;5.60;;;2.53;;
21301;SDS011;10810;48.270;9.996;2023-11-19T07:08:38;6.03;;;2.73;;
21301;SDS011;10810;48.270;9.996;2023-11-19T07:11:05;5.50;;;2.93;;
21301;SDS011;10810;48.270;9.996;2023-11-19T07:13:35;4.23;;;2.63;;
21301;SDS011;10810;48.270;9.996;2023-11-19T07:16:18;6.80;;;2.80;;
21301;SDS011;10810;48.270;9.996;2023-11-19T07:18:48;4.97;;;2.50;;
21301;SDS011;10810;48.270;9.996;2023-11-19T07:21:15;5.27;;;2.90;;
21301;SDS011;10810;48.270;9.996;2023-11-19T07:23:42;5.30;;;2.73;;
21301;SDS011;10810;48.270;9.996;2023-11-19T07:26:10;5.30;;;2.50;;
21301;SDS011;10810;48.270;9.996;2023-11-19T07:28:39;5.07;;;2.70;;
21301;SDS011;10810;48.270;9.996;2023-11-19T07:31:06;5.50;;;2.70;;
21301;SDS011;10810;48.270;9.996;2023-11-19T07:33:34;4.73;;;2.70;;
21301;SDS011;10810;48.270;9.996;2023-11-19T07:36:02;6.17;;;3.00;;
21301;SDS011;10810;48.270;9.996;2023-11-19T07:38:30;6.37;;;3.40;;
21301;SDS011;10810;48.270;9.996;2023-11-19T07:40:58;5.20;;;2.93;;
21301;SDS011;10810;48.270;9.996;2023-11-19T07:43:25;5.93;;;3.07;;
21301;SDS011;10810;48.270;9.996;2023-11-19T07:45:53;5.30;;;2.80;;
21301;SDS011;10810;48.270;9.996;2023-11-19T07:48:20;5.97;;;3.00;;
21301;SDS011;10810;48.270;9.996;2023-11-19T07:50:48;5.03;;;2.50;;
21301;SDS011;10810;48.270;9.996;2023-11-19T07:53:18;4.97;;;2.83;;
21301;SDS011;10810;48.270;9.996;2023-11-19T07:55:46;4.40;;;2.90;;
21301;SDS011;10810;48.270;9.996;2023-11-19T07:58:13;6.03;;;3.07;;
21301;SDS011;10810;48.270;9.996;2023-11-19T08:00:41;6.47;;;2.87;;
21301;SDS011;10810;48.270;9.996;2023-11-19T08:03:08;5.40;;;3.03;;
21301;SDS011;10810;48.270;9.996;2023-11-19T08:05:35;6.13;;;3.37;;
21301;SDS011;10810;48.270;9.996;2023-11-19T08:08:03;6.13;;;3.00;;
21301;SDS011;10810;48.270;9.996;2023-11-19T08:10:32;5.40;;;3.10;;
21301;SDS011;10810;48.270;9.996;2023-11-19T08:12:59;5.60;;;3.13;;
21301;SDS011;10810;48.270;9.996;2023-11-19T08:15:26;6.10;;;3.30;;
21301;SDS011;10810;48.270;9.996;2023-11-19T08:17:54;6.10;;;3.13;;
21301;SDS011;10810;48.270;9.996;2023-11-19T08:20:21;5.33;;;3.10;;
21301;SDS011;10810;48.270;9.996;2023-11-19T08:22:48;6.47;;;2.87;;
21301;SDS011;10810;48.270;9.996;2023-11-19T08:25:16;6.27;;;3.10;;
21301;SDS011;10810;48.270;9.996;2023-11-19T08:27:45;5.07;;;2.97;;
21301;SDS011;10810;48.270;9.996;2023-11-19T08:30:12;6.23;;;3.50;;
21301;SDS011;10810;48.270;9.996;2023-11-19T08:32:40;6.43;;;3.43;;
21301;SDS011;10810;48.270;9.996;2023-11-19T08:35:07;6.70;;;3.47;;
21301;SDS011;10810;48.270;9.996;2023-11-19T08:37:35;5.77;;;3.30;;
21301;SDS011;10810;48.270;9.996;2023-11-19T08:40:04;7.83;;;3.77;;
21301;SDS011;10810;48.270;9.996;2023-11-19T08:42:32;6.07;;;3.70;;
21301;SDS011;10810;48.270;9.996;2023-11-19T08:45:01;6.70;;;4.27;;
21301;SDS011;10810;48.270;9.996;2023-11-19T08:47:30;4.83;;;3.13;;
21301;SDS011;10810;48.270;9.996;2023-11-19T08:49:57;6.07;;;3.40;;
21301;SDS011;10810;48.270;9.996;2023-11-19T08:52:26;7.43;;;3.40;;
21301;SDS011;10810;48.270;9.996;2023-11-19T08:54:54;5.93;;;3.27;;
21301;SDS011;10810;48.270;9.996;2023-11-19T08:57:21;5.63;;;2.90;;
21301;SDS011;10810;48.270;9.996;2023-11-19T08:59:48;6.87;;;3.30;;
21301;SDS011;10810;48.270;9.996;2023-11-19T09:02:17;5.30;;;2.40;;
21301;SDS011;10810;48.270;9.996;2023-11-19T09:04:44;4.70;;;2.43;;
21301;SDS011;10810;48.270;9.996;2023-11-19T09:07:12;3.77;;;2.50;;
21301;SDS011;10810;48.270;9.996;2023-11-19T09:09:39;4.27;;;2.80;;
21301;SDS011;10810;48.270;9.996;2023-11-19T09:12:06;5.70;;;3.30;;
21301;SDS011;10810;48.270;9.996;2023-11-19T09:14:34;5.90;;;2.97;;
21301;SDS011;10810;48.270;9.996;2023-11-19T09:17:03;5.20;;;2.93;;
21301;SDS011;10810;48.270;9.996;2023-11-19T09:19:33;4.27;;;2.37;;
21301;SDS011;10810;48.270;9.996;2023-11-19T09:22:03;3.63;;;2.17;;
21301;SDS011;10810;48.270;9.996;2023-11-19T09:24:31;4.00;;;2.43;;
21301;SDS011;10810;48.270;9.996;2023-11-19T09:26:59;3.90;;;2.50;;
21301;SDS011;10810;48.270;9.996;2023-11-19T09:29:26;3.90;;;2.27;;
21301;SDS011;10810;48.270;9.996;2023-11-19T09:31:53;3.40;;;2.10;;
21301;SDS011;10810;48.270;9.996;2023-11-19T09:34:21;3.33;;;1.80;;
21301;SDS011;10810;48.270;9.996;2023-11-19T09:36:50;3.23;;;1.73;;
21301;SDS011;10810;48.270;9.996;2023-11-19T09:39:17;3.23;;;1.70;;
21301;SDS011;10810;48.270;9.996;2023-11-19T09:41:45;2.80;;;1.70;;
21301;SDS011;10810;48.270;9.996;2023-11-19T09:44:14;2.60;;;1.57;;
21301;SDS011;10810;48.270;9.996;2023-11-19T09:46:43;2.83;;;1.80;;
21301;SDS011;10810;48.270;9.996;2023-11-19T09:49:12;2.60;;;1.60;;
21301;SDS011;10810;48.270;9.996;2023-11-19T09:51:40;2.50;;;1.47;;
21301;SDS011;10810;48.270;9.996;2023-11-19T09:54:09;2.47;;;1.40;;
21301;SDS011;10810;48.270;9.996;2023-11-19T09:56:38;3.00;;;1.70;;
21301;SDS011;10810;48.270;9.996;2023-11-19T09:59:06;2.47;;;1.43;;
21301;SDS011;10810;48.270;9.996;2023-11-19T10:01:35;7.30;;;1.87;;
21301;SDS011;10810;48.270;9.996;2023-11-19T10:04:04;3.27;;;1.50;;
21301;SDS011;10810;48.270;9.996;2023-11-19T10:06:32;18.90;;;2.17;;
21301;SDS011;10810;48.270;9.996;2023-11-19T10:09:00;3.80;;;1.60;;
21301;SDS011;10810;48.270;9.996;2023-11-19T10:11:31;1.87;;;1.33;;
21301;SDS011;10810;48.270;9.996;2023-11-19T10:13:58;4.67;;;1.60;;
21301;SDS011;10810;48.270;9.996;2023-11-19T10:16:28;126.13;;;8.30;;
21301;SDS011;10810;48.270;9.996;2023-11-19T10:18:56;1.87;;;1.20;;
21301;SDS011;10810;48.270;9.996;2023-11-19T10:21:24;1.03;;;0.80;;
21301;SDS011;10810;48.270;9.996;2023-11-19T10:23:53;1.90;;;0.93;;
21301;SDS011;10810;48.270;9.996;2023-11-19T10:26:22;1.17;;;0.90;;
21301;SDS011;10810;48.270;9.996;2023-11-19T10:28:51;1.17;;;0.87;;
21301;SDS011;10810;48.270;9.996;2023-11-19T10:31:19;2.83;;;1.40;;
21301;SDS011;10810;48.270;9.996;2023-11-19T10:33:50;11.07;;;4.63;;
21301;SDS011;10810;48.270;9.996;2023-11-19T10:36:17;1.73;;;1.17;;
21301;SDS011;10810;48.270;9.996;2023-11-19T10:38:51;2.23;;;1.30;;
21301;SDS011;10810;48.270;9.996;2023-11-19T10:41:28;1.17;;;0.80;;
21301;SDS011;10810;48.270;9.996;2023-11-19T10:43:57;1.10;;;0.90;;
21301;SDS011;10810;48.270;9.996;2023-11-19T10:46:35;3.03;;;0.90;;
21301;SDS011;10810;48.270;9.996;2023-11-19T10:49:06;1.53;;;1.10;;
21301;SDS011;10810;48.270;9.996;2023-11-19T10:51:33;1.10;;;0.97;;
21301;SDS011;10810;48.270;9.996;2023-11-19T10:54:02;1.50;;;0.97;;
21301;SDS011;10810;48.270;9.996;2023-11-19T10:56:31;1.93;;;0.90;;
21301;SDS011;10810;48.270;9.996;2023-11-19T10:59:01;1.10;;;0.87;;
21301;SDS011;10810;48.270;9.996;2023-11-19T11:01:32;2.20;;;1.20;;
21301;SDS011;10810;48.270;9.996;2023-11-19T11:04:03;0.80;;;0.60;;
21301;SDS011;10810;48.270;9.996;2023-11-19T11:06:35;1.20;;;0.80;;
21301;SDS011;10810;48.270;9.996;2023-11-19T11:09:03;1.40;;;0.80;;
21301;SDS011;10810;48.270;9.996;2023-11-19T11:11:30;0.90;;;0.80;;
21301;SDS011;10810;48.270;9.996;2023-11-19T11:13:57;2.23;;;0.60;;
21301;SDS011;10810;48.270;9.996;2023-11-19T11:16:29;1.80;;;1.07;;
21301;SDS011;10810;48.270;9.996;2023-11-19T11:18:57;1.50;;;0.70;;
21301;SDS011;10810;48.270;9.996;2023-11-19T11:21:38;1.17;;;0.80;;
21301;SDS011;10810;48.270;9.996;2023-11-19T11:30:46;0.83;;;0.67;;
21301;SDS011;10810;48.270;9.996;2023-11-19T11:33:26;1.20;;;0.70;;
21301;SDS011;10810;48.270;9.996;2023-11-19T11:40:53;0.90;;;0.67;;
21301;SDS011;10810;48.270;9.996;2023-11-19T11:50:07;1.30;;;0.70;;
21301;SDS011;10810;48.270;9.996;2023-11-19T11:52:38;0.97;;;0.60;;
21301;SDS011;10810;48.270;9.996;2023-11-19T11:55:57;1.67;;;0.80;;
21301;SDS011;10810;48.270;9.996;2023-11-19T11:58:30;1.00;;;0.60;;
21301;SDS011;10810;48.270;9.996;2023-11-19T12:01:01;1.47;;;0.70;;
21301;SDS011;10810;48.270;9.996;2023-11-19T12:03:51;1.40;;;0.73;;
21301;SDS011;10810;48.270;9.996;2023-11-19T12:06:24;35.77;;;12.47;;
21301;SDS011;10810;48.270;9.996;2023-11-19T12:08:59;3.77;;;1.80;;
21301;SDS011;10810;48.270;9.996;2023-11-19T12:11:28;0.93;;;0.83;;
21301;SDS011;10810;48.270;9.996;2023-11-19T12:13:58;1.30;;;0.90;;
21301;SDS011;10810;48.270;9.996;2023-11-19T12:16:27;1.20;;;0.93;;
21301;SDS011;10810;48.270;9.996;2023-11-19T12:18:58;1.43;;;0.90;;
21301;SDS011;10810;48.270;9.996;2023-11-19T12:21:32;1.80;;;1.00;;
21301;SDS011;10810;48.270;9.996;2023-11-19T12:24:16;1.00;;;0.80;;
21301;SDS011;10810;48.270;9.996;2023-11-19T12:26:51;1.10;;;0.63;;
21301;SDS011;10810;48.270;9.996;2023-11-19T12:29:22;1.93;;;0.70;;
21301;SDS011;10810;48.270;9.996;2023-11-19T12:34:42;2.30;;;0.70;;
21301;SDS011;10810;48.270;9.996;2023-11-19T12:43:13;0.70;;;0.50;;
21301;SDS011;10810;48.270;9.996;2023-11-19T12:45:48;0.73;;;0.50;;
21301;SDS011;10810;48.270;9.996;2023-11-19T12:48:17;2.53;;;0.50;;
21301;SDS011;10810;48.270;9.996;2023-11-19T12:50:51;1.10;;;0.80;;
21301;SDS011;10810;48.270;9.996;2023-11-19T12:53:47;1.40;;;0.80;;
21301;SDS011;10810;48.270;9.996;2023-11-19T12:56:22;0.87;;;0.60;;
21301;SDS011;10810;48.270;9.996;2023-11-19T12:58:51;1.37;;;0.70;;
21301;SDS011;10810;48.270;9.996;2023-11-19T13:01:19;1.00;;;0.70;;
21301;SDS011;10810;48.270;9.996;2023-11-19T13:03:46;0.97;;;0.60;;
21301;SDS011;10810;48.270;9.996;2023-11-19T13:06:16;1.43;;;0.67;;
21301;SDS011;10810;48.270;9.996;2023-11-19T13:08:46;0.70;;;0.50;;
21301;SDS011;10810;48.270;9.996;2023-11-19T13:11:29;0.47;;;0.40;;
21301;SDS011;10810;48.270;9.996;2023-11-19T13:13:58;0.90;;;0.50;;
21301;SDS011;10810;48.270;9.996;2023-11-19T13:16:28;1.00;;;0.60;;
21301;SDS011;10810;48.270;9.996;2023-11-19T13:19:02;0.57;;;0.40;;
21301;SDS011;10810;48.270;9.996;2023-11-19T13:21:44;0.63;;;0.43;;
21301;SDS011;10810;48.270;9.996;2023-11-19T13:24:13;1.33;;;0.53;;
21301;SDS011;10810;48.270;9.996;2023-11-19T13:26:41;0.70;;;0.40;;
21301;SDS011;10810;48.270;9.996;2023-11-19T13:29:09;0.60;;;0.43;;
21301;SDS011;10810;48.270;9.996;2023-11-19T13:31:37;0.93;;;0.60;;
21301;SDS011;10810;48.270;9.996;2023-11-19T13:34:04;0.40;;;0.40;;
21301;SDS011;10810;48.270;9.996;2023-11-19T13:36:35;0.60;;;0.40;;
21301;SDS011;10810;48.270;9.996;2023-11-19T13:39:02;0.40;;;0.40;;
21301;SDS011;10810;48.270;9.996;2023-11-19T13:41:30;0.93;;;0.40;;
21301;SDS011;10810;48.270;9.996;2023-11-19T13:44:19;0.40;;;0.40;;
21301;SDS011;10810;48.270;9.996;2023-11-19T13:46:46;0.50;;;0.40;;
21301;SDS011;10810;48.270;9.996;2023-11-19T13:49:15;0.70;;;0.40;;
21301;SDS011;10810;48.270;9.996;2023-11-19T13:52:05;1.40;;;0.50;;
21301;SDS011;10810;48.270;9.996;2023-11-19T13:54:34;0.70;;;0.40;;
21301;SDS011;10810;48.270;9.996;2023-11-19T13:57:01;0.50;;;0.50;;
21301;SDS011;10810;48.270;9.996;2023-11-19T13:59:30;0.83;;;0.37;;
21301;SDS011;10810;48.270;9.996;2023-11-19T14:01:58;0.77;;;0.50;;
21301;SDS011;10810;48.270;9.996;2023-11-19T14:04:27;0.30;;;0.30;;
21301;SDS011;10810;48.270;9.996;2023-11-19T14:06:56;1.17;;;0.50;;
21301;SDS011;10810;48.270;9.996;2023-11-19T14:09:23;1.10;;;0.50;;
21301;SDS011;10810;48.270;9.996;2023-11-19T14:11:50;1.20;;;0.60;;
21301;SDS011;10810;48.270;9.996;2023-11-19T14:14:18;0.63;;;0.47;;
21301;SDS011;10810;48.270;9.996;2023-11-19T14:16:54;0.40;;;0.40;;
21301;SDS011;10810;48.270;9.996;2023-11-19T14:19:22;0.50;;;0.50;;
21301;SDS011;10810;48.270;9.996;2023-11-19T14:21:53;4.20;;;0.60;;
21301;SDS011;10810;48.270;9.996;2023-11-19T14:24:24;0.60;;;0.40;;
21301;SDS011;10810;48.270;9.996;2023-11-19T14:26:52;0.80;;;0.57;;
21301;SDS011;10810;48.270;9.996;2023-11-19T14:29:23;1.47;;;0.47;;
21301;SDS011;10810;48.270;9.996;2023-11-19T14:31:54;1.83;;;0.50;;
21301;SDS011;10810;48.270;9.996;2023-11-19T14:34:22;0.80;;;0.40;;
21301;SDS011;10810;48.270;9.996;2023-11-19T14:36:50;1.10;;;0.47;;
21301;SDS011;10810;48.270;9.996;2023-11-19T14:39:18;2.67;;;0.50;;
21301;SDS011;10810;48.270;9.996;2023-11-19T14:41:48;1.73;;;0.50;;
21301;SDS011;10810;48.270;9.996;2023-11-19T14:44:35;1.87;;;0.60;;
21301;SDS011;10810;48.270;9.996;2023-11-19T14:47:04;0.60;;;0.40;;
21301;SDS011;10810;48.270;9.996;2023-11-19T14:49:31;2.10;;;0.50;;
21301;SDS011;10810;48.270;9.996;2023-11-19T14:51:58;0.70;;;0.50;;
21301;SDS011;10810;48.270;9.996;2023-11-19T14:54:26;0.60;;;0.50;;
21301;SDS011;10810;48.270;9.996;2023-11-19T14:56:53;1.37;;;0.60;;
21301;SDS011;10810;48.270;9.996;2023-11-19T14:59:21;0.70;;;0.70;;
21301;SDS011;10810;48.270;9.996;2023-11-19T15:01:48;0.40;;;0.40;;
21301;SDS011;10810;48.270;9.996;2023-11-19T15:04:17;0.50;;;0.50;;
21301;SDS011;10810;48.270;9.996;2023-11-19T15:06:46;0.53;;;0.40;;
21301;SDS011;10810;48.270;9.996;2023-11-19T15:09:13;0.70;;;0.60;;
21301;SDS011;10810;48.270;9.996;2023-11-19T15:11:42;0.67;;;0.40;;
21301;SDS011;10810;48.270;9.996;2023-11-19T15:14:11;1.10;;;0.40;;
21301;SDS011;10810;48.270;9.996;2023-11-19T15:16:40;0.73;;;0.60;;
21301;SDS011;10810;48.270;9.996;2023-11-19T15:19:07;0.57;;;0.50;;
21301;SDS011;10810;48.270;9.996;2023-11-19T15:21:37;0.83;;;0.60;;
21301;SDS011;10810;48.270;9.996;2023-11-19T15:24:05;0.70;;;0.50;;
21301;SDS011;10810;48.270;9.996;2023-11-19T15:26:47;1.47;;;0.93;;